createdAt,value
2018-09-18T00:01:12.996Z,22.13
2018-09-18T00:04:37.358Z,21.98
2018-09-18T00:08:01.812Z,21.92
2018-09-18T00:11:26.272Z,22.02
2018-09-18T00:14:50.716Z,21.95
2018-09-18T00:18:15.187Z,22.00
2018-09-18T00:21:39.584Z,22.11
2018-09-18T00:25:03.990Z,22.10
2018-09-18T00:28:28.509Z,22.17
2018-09-18T00:31:53.030Z,22.05
2018-09-18T00:35:17.531Z,22.05
2018-09-18T00:38:42.179Z,21.99
2018-09-18T00:42:06.608Z,22.02
2018-09-18T00:45:31.053Z,22.13
2018-09-18T00:48:55.530Z,21.88
2018-09-18T00:52:20.000Z,21.86
2018-09-18T00:55:44.452Z,21.89
2018-09-18T00:59:08.901Z,21.90
2018-09-18T01:02:33.372Z,21.85
2018-09-18T01:05:57.887Z,21.60
2018-09-18T01:09:22.377Z,21.63
2018-09-18T01:12:46.897Z,21.72
2018-09-18T01:16:11.319Z,21.87
2018-09-18T01:19:35.742Z,21.73
2018-09-18T01:23:00.158Z,21.73
2018-09-18T01:26:24.611Z,21.80
2018-09-18T01:29:49.024Z,21.67
2018-09-18T01:33:13.458Z,21.63
2018-09-18T01:36:37.944Z,21.68
2018-09-18T01:40:02.365Z,21.65
2018-09-18T01:43:26.818Z,21.59
2018-09-18T01:46:51.267Z,21.57
2018-09-18T01:50:15.706Z,21.61
2018-09-18T01:53:40.149Z,21.44
2018-09-18T01:57:04.607Z,21.42
2018-09-18T02:00:29.023Z,21.46
2018-09-18T02:03:53.466Z,21.41
2018-09-18T02:07:17.913Z,21.33
2018-09-18T02:10:42.382Z,21.41
2018-09-18T02:14:06.849Z,21.42
2018-09-18T02:17:31.296Z,21.36
2018-09-18T02:20:55.766Z,21.34
2018-09-18T02:24:20.234Z,21.37
2018-09-18T02:27:44.664Z,21.39
2018-09-18T02:31:09.054Z,21.40
2018-09-18T02:34:33.459Z,21.33
2018-09-18T02:37:57.899Z,21.36
2018-09-18T02:41:22.323Z,21.19
2018-09-18T02:44:46.751Z,21.35
2018-09-18T02:48:11.147Z,21.42
2018-09-18T02:51:35.573Z,21.31
2018-09-18T02:55:00.015Z,21.37
2018-09-18T02:58:24.501Z,21.36
2018-09-18T03:01:48.954Z,21.31
2018-09-18T03:05:13.351Z,21.31
2018-09-18T03:08:37.773Z,21.44
2018-09-18T03:12:02.301Z,21.42
2018-09-18T03:15:26.730Z,21.39
2018-09-18T03:18:51.143Z,21.58
2018-09-18T03:22:15.594Z,21.60
2018-09-18T03:25:39.999Z,21.50
2018-09-18T03:29:04.469Z,21.46
2018-09-18T03:32:28.912Z,21.50
2018-09-18T03:35:53.328Z,21.41
2018-09-18T03:39:17.728Z,21.62
2018-09-18T03:42:42.301Z,21.72
2018-09-18T03:46:06.761Z,21.72
2018-09-18T03:49:31.289Z,21.65
2018-09-18T03:52:55.740Z,21.65
2018-09-18T03:56:20.157Z,21.72
2018-09-18T03:59:44.606Z,21.45
2018-09-18T04:03:09.050Z,21.49
2018-09-18T04:06:33.465Z,21.72
2018-09-18T04:09:57.966Z,21.56
2018-09-18T04:13:22.428Z,21.49
2018-09-18T04:16:46.837Z,21.71
2018-09-18T04:20:11.288Z,21.59
2018-09-18T04:23:35.743Z,21.64
2018-09-18T04:27:00.607Z,21.72
2018-09-18T04:30:25.047Z,21.67
2018-09-18T04:33:49.466Z,21.61
2018-09-18T04:37:13.850Z,21.66
2018-09-18T04:40:38.528Z,21.67
2018-09-18T04:44:02.959Z,21.69
2018-09-18T04:47:27.354Z,21.52
2018-09-18T04:50:51.808Z,21.57
2018-09-18T04:54:51.222Z,21.60
2018-09-18T04:58:16.361Z,21.49
2018-09-18T05:01:40.788Z,21.44
2018-09-18T05:05:05.767Z,21.48
2018-09-18T05:08:30.208Z,21.37
2018-09-18T05:11:54.689Z,21.49
2018-09-18T05:15:19.201Z,21.30
2018-09-18T05:18:43.733Z,21.26
2018-09-18T05:22:08.199Z,21.34
2018-09-18T05:25:32.629Z,21.42
2018-09-18T05:28:57.066Z,21.44
2018-09-18T05:32:21.537Z,21.42
2018-09-18T05:35:45.965Z,21.44
2018-09-18T05:39:11.811Z,21.39
2018-09-18T05:42:36.259Z,21.51
2018-09-18T05:46:00.696Z,21.35
2018-09-18T05:49:27.270Z,21.51
2018-09-18T05:52:51.898Z,21.41
2018-09-18T05:56:16.345Z,21.61
2018-09-18T05:59:40.818Z,21.54
2018-09-18T06:03:05.313Z,21.63
2018-09-18T06:06:29.851Z,21.56
2018-09-18T06:09:54.384Z,21.76
2018-09-18T06:13:18.839Z,21.80
2018-09-18T06:16:43.263Z,22.00
2018-09-18T06:20:07.815Z,21.97
2018-09-18T06:23:32.277Z,22.07
2018-09-18T06:26:56.757Z,22.06
2018-09-18T06:30:21.234Z,21.97
2018-09-18T06:33:45.698Z,22.15
2018-09-18T06:37:10.169Z,22.07
2018-09-18T06:40:41.550Z,22.10
2018-09-18T06:44:06.240Z,22.29
2018-09-18T06:47:30.683Z,22.29
2018-09-18T06:50:55.142Z,22.42
2018-09-18T06:54:19.624Z,22.31
2018-09-18T06:57:44.057Z,22.25
2018-09-18T07:01:08.580Z,22.47
2018-09-18T07:04:33.018Z,22.59
2018-09-18T07:07:57.518Z,22.65
2018-09-18T07:11:22.010Z,22.81
2018-09-18T07:14:46.442Z,22.79
2018-09-18T07:18:10.989Z,22.93
2018-09-18T07:21:35.386Z,23.20
2018-09-18T07:25:06.494Z,23.24
2018-09-18T07:28:31.442Z,23.38
2018-09-18T07:31:55.903Z,23.52
2018-09-18T07:35:20.340Z,23.67
2018-09-18T07:38:44.961Z,23.68
2018-09-18T07:42:09.409Z,23.91
2018-09-18T07:45:33.890Z,23.90
2018-09-18T07:49:02.263Z,24.09
2018-09-18T07:52:26.711Z,24.07
2018-09-18T07:55:51.131Z,24.28
2018-09-18T07:59:15.556Z,24.24
2018-09-18T08:02:40.030Z,24.39
2018-09-18T08:06:04.528Z,24.43
2018-09-18T08:09:29.020Z,24.43
2018-09-18T08:12:53.503Z,24.58
2018-09-18T08:16:17.928Z,24.83
2018-09-18T08:19:42.541Z,24.85
2018-09-18T08:23:06.838Z,24.92
2018-09-18T08:26:31.288Z,25.29
2018-09-18T08:29:55.804Z,25.34
2018-09-18T08:33:20.265Z,25.43
2018-09-18T08:36:44.699Z,25.57
2018-09-18T08:40:09.348Z,25.72
2018-09-18T08:43:33.658Z,26.05
2018-09-18T08:46:58.148Z,26.00
2018-09-18T08:50:22.626Z,26.14
2018-09-18T08:53:47.129Z,26.38
2018-09-18T08:57:11.571Z,26.53
2018-09-18T09:00:36.025Z,26.48
2018-09-18T09:04:00.538Z,26.59
2018-09-18T09:07:24.975Z,26.65
2018-09-18T09:10:49.543Z,27.10
2018-09-18T09:14:14.178Z,27.35
2018-09-18T09:17:38.651Z,27.68
2018-09-18T09:21:03.157Z,27.67
2018-09-18T09:24:27.568Z,27.72
2018-09-18T09:27:52.088Z,28.00
2018-09-18T09:31:16.516Z,28.17
2018-09-18T09:34:40.936Z,28.28
2018-09-18T09:38:05.376Z,28.56
2018-09-18T09:41:29.801Z,28.82
2018-09-18T09:44:54.301Z,28.94
2018-09-18T09:48:18.783Z,29.39
2018-09-18T09:51:43.417Z,29.07
2018-09-18T09:55:07.760Z,29.22
2018-09-18T09:58:32.235Z,29.71
2018-09-18T10:02:01.855Z,29.88
2018-09-18T10:05:26.297Z,30.17
2018-09-18T10:08:50.752Z,30.30
2018-09-18T10:12:15.216Z,30.14
2018-09-18T10:15:39.701Z,30.43
2018-09-18T10:19:04.193Z,31.05
2018-09-18T10:22:28.636Z,31.12
2018-09-18T10:25:53.132Z,31.31
2018-09-18T10:29:17.554Z,31.54
2018-09-18T10:32:42.093Z,31.93
2018-09-18T10:36:06.495Z,32.32
2018-09-18T10:39:30.985Z,31.92
2018-09-18T10:42:55.441Z,32.06
2018-09-18T10:46:20.034Z,32.03
2018-09-18T10:49:44.485Z,32.02
2018-09-18T10:53:08.928Z,32.07
2018-09-18T10:56:33.362Z,32.65
2018-09-18T10:59:57.848Z,32.72
2018-09-18T11:03:22.325Z,32.65
2018-09-18T11:06:46.775Z,32.79
2018-09-18T11:10:11.303Z,32.86
2018-09-18T11:13:35.771Z,32.97
2018-09-18T11:17:00.206Z,33.19
2018-09-18T11:20:24.622Z,33.42
2018-09-18T11:23:49.141Z,33.73
2018-09-18T11:27:13.564Z,33.90
2018-09-18T11:30:38.087Z,34.89
2018-09-18T11:34:02.489Z,35.10
2018-09-18T11:37:26.906Z,35.24
2018-09-18T11:40:51.287Z,33.85
2018-09-18T11:44:15.749Z,34.41
2018-09-18T11:47:40.173Z,34.73
2018-09-18T11:51:04.652Z,34.74
2018-09-18T11:54:29.096Z,34.77
2018-09-18T11:57:53.575Z,35.58
2018-09-18T12:01:18.018Z,35.13
2018-09-18T12:04:42.525Z,36.38
2018-09-18T12:08:07.355Z,38.28
2018-09-18T12:11:32.024Z,37.75
2018-09-18T12:14:56.447Z,36.69
2018-09-18T12:18:20.906Z,37.35
2018-09-18T12:21:45.356Z,38.29
2018-09-18T12:25:09.795Z,37.86
2018-09-18T12:28:34.331Z,37.68
2018-09-18T12:31:58.786Z,39.22
2018-09-18T12:35:23.253Z,39.09
2018-09-18T12:38:47.751Z,39.76
2018-09-18T12:42:12.413Z,38.24
2018-09-18T12:45:36.702Z,38.81
2018-09-18T12:49:01.248Z,39.31
2018-09-18T12:52:25.672Z,39.67
2018-09-18T12:55:50.113Z,39.75
2018-09-18T12:59:14.632Z,40.38
2018-09-18T13:02:39.068Z,38.77
2018-09-18T13:06:03.573Z,39.99
2018-09-18T13:09:28.038Z,39.77
2018-09-18T13:12:52.490Z,40.18
2018-09-18T13:16:16.955Z,39.71
2018-09-18T13:19:41.384Z,39.89
2018-09-18T13:23:06.015Z,38.73
2018-09-18T13:26:30.442Z,39.54
2018-09-18T13:29:54.962Z,39.53
2018-09-18T13:33:19.400Z,38.95
2018-09-18T13:36:43.920Z,37.78
2018-09-18T13:40:08.403Z,38.29
2018-09-18T13:43:32.886Z,37.56
2018-09-18T13:46:57.545Z,38.11
2018-09-18T13:50:22.088Z,38.64
2018-09-18T13:53:46.439Z,38.78
2018-09-18T13:57:10.865Z,39.95
2018-09-18T14:00:35.753Z,40.74
2018-09-18T14:04:00.408Z,41.33
2018-09-18T14:07:24.874Z,41.83
2018-09-18T14:10:49.559Z,40.28
2018-09-18T14:14:14.118Z,40.05
2018-09-18T14:17:38.857Z,39.33
2018-09-18T14:21:03.569Z,38.23
2018-09-18T14:24:28.217Z,38.67
2018-09-18T14:27:53.688Z,38.86
2018-09-18T14:31:18.114Z,38.70
2018-09-18T14:34:42.547Z,39.32
2018-09-18T14:38:07.105Z,39.86
2018-09-18T14:41:31.516Z,40.05
2018-09-18T14:44:56.300Z,40.76
2018-09-18T14:48:20.962Z,40.60
2018-09-18T14:51:45.423Z,40.11
2018-09-18T14:55:10.005Z,40.00
2018-09-18T14:58:34.413Z,39.62
2018-09-18T15:01:58.865Z,40.44
2018-09-18T15:05:24.489Z,40.65
2018-09-18T15:08:49.007Z,39.18
2018-09-18T15:12:14.163Z,40.00
2018-09-18T15:15:38.903Z,40.09
2018-09-18T15:19:03.871Z,39.85
2018-09-18T15:22:28.626Z,40.17
2018-09-18T15:25:53.102Z,39.42
2018-09-18T15:29:23.778Z,38.91
2018-09-18T15:32:49.426Z,38.95
2018-09-18T15:36:13.823Z,39.66
2018-09-18T15:39:38.398Z,39.94
2018-09-18T15:43:02.846Z,38.90
2018-09-18T15:46:27.328Z,38.74
2018-09-18T15:53:25.849Z,39.79
2018-09-18T15:56:50.337Z,39.68
2018-09-18T16:00:14.858Z,39.05
2018-09-18T16:03:39.360Z,39.18
2018-09-18T16:07:03.932Z,39.62
2018-09-18T16:10:28.401Z,39.03
2018-09-18T16:13:52.934Z,38.42
2018-09-18T16:17:17.543Z,39.26
2018-09-18T16:20:42.043Z,38.12
2018-09-18T16:24:06.883Z,38.27
2018-09-18T16:27:31.381Z,38.68
2018-09-18T16:30:56.014Z,38.58
2018-09-18T16:34:20.582Z,38.30
2018-09-18T16:37:47.995Z,37.86
2018-09-18T16:41:12.583Z,36.06
2018-09-18T16:44:37.071Z,34.73
2018-09-18T16:48:01.679Z,34.79
2018-09-18T16:51:26.095Z,33.55
2018-09-18T16:54:50.669Z,33.42
2018-09-18T16:58:15.148Z,32.84
2018-09-18T17:01:39.903Z,32.42
2018-09-18T17:05:08.467Z,32.01
2018-09-18T17:08:33.040Z,31.60
2018-09-18T17:11:57.506Z,31.86
2018-09-18T17:15:21.960Z,31.49
2018-09-18T17:18:46.510Z,31.31
2018-09-18T17:22:11.086Z,31.30
2018-09-18T17:25:35.544Z,30.69
2018-09-18T17:29:00.142Z,30.51
2018-09-18T17:32:24.422Z,29.92
2018-09-18T17:35:48.917Z,30.15
2018-09-18T17:39:13.379Z,29.98
2018-09-18T17:42:37.854Z,29.30
2018-09-18T17:46:02.673Z,28.93
2018-09-18T17:49:27.119Z,29.16
2018-09-18T17:52:51.784Z,28.99
2018-09-18T17:56:16.479Z,28.73
2018-09-18T17:59:41.099Z,28.82
2018-09-18T18:03:05.605Z,28.58
2018-09-18T18:06:41.654Z,28.78
2018-09-18T18:10:08.797Z,28.49
2018-09-18T18:13:36.637Z,28.34
2018-09-18T18:17:01.202Z,28.42
2018-09-18T18:20:25.823Z,28.30
2018-09-18T18:23:50.186Z,27.99
2018-09-18T18:27:14.682Z,28.00
2018-09-18T18:30:39.184Z,27.73
2018-09-18T18:34:03.624Z,27.36
2018-09-18T18:37:28.199Z,27.39
2018-09-18T18:40:52.823Z,27.38
2018-09-18T18:44:17.287Z,27.20
2018-09-18T18:47:41.857Z,27.30
2018-09-18T18:51:06.343Z,27.16
2018-09-18T18:54:30.833Z,27.25
2018-09-18T18:57:55.422Z,27.22
2018-09-18T19:01:19.867Z,26.96
2018-09-18T19:04:44.359Z,26.84
2018-09-18T19:08:08.957Z,26.84
2018-09-18T19:11:33.410Z,26.65
2018-09-18T19:14:57.846Z,26.78
2018-09-18T19:18:22.351Z,26.26
2018-09-18T19:21:46.827Z,26.44
2018-09-18T19:25:11.321Z,26.16
2018-09-18T19:28:35.787Z,26.18
2018-09-18T19:32:00.278Z,26.03
2018-09-18T19:35:24.754Z,25.86
2018-09-18T19:38:53.166Z,25.59
2018-09-18T19:42:21.679Z,25.56
2018-09-18T19:45:46.329Z,25.40
2018-09-18T19:49:10.984Z,25.37
2018-09-18T19:52:36.111Z,25.25
2018-09-18T19:56:01.130Z,25.38
2018-09-18T19:59:25.761Z,25.09
2018-09-18T20:02:50.192Z,24.92
2018-09-18T20:06:18.707Z,24.78
2018-09-18T20:09:43.365Z,24.39
2018-09-18T20:13:07.879Z,24.29
2018-09-18T20:16:32.534Z,24.38
2018-09-18T20:19:57.260Z,24.31
2018-09-18T20:23:21.655Z,24.08
2018-09-18T20:26:46.212Z,24.01
2018-09-18T20:30:10.996Z,23.88
2018-09-18T20:33:35.451Z,23.84
2018-09-18T20:36:59.863Z,23.71
2018-09-18T20:40:24.341Z,23.67
2018-09-18T20:43:48.792Z,23.54
2018-09-18T20:47:13.234Z,23.62
2018-09-18T20:50:37.752Z,23.30
2018-09-18T20:54:02.342Z,23.29
2018-09-18T20:57:26.766Z,23.22
2018-09-18T21:00:51.614Z,22.93
2018-09-18T21:04:16.369Z,22.82
2018-09-18T21:07:40.988Z,22.77
2018-09-18T21:11:05.743Z,22.74
2018-09-18T21:14:30.523Z,22.81
2018-09-18T21:17:55.076Z,23.12
2018-09-18T21:21:19.833Z,22.93
2018-09-18T21:24:44.417Z,22.74
2018-09-18T21:28:09.528Z,22.79
2018-09-18T21:31:33.984Z,22.81
2018-09-18T21:34:58.540Z,22.54
2018-09-18T21:38:23.004Z,22.28
2018-09-18T21:41:47.460Z,22.34
2018-09-18T21:45:11.899Z,22.22
2018-09-18T21:48:36.389Z,22.26
2018-09-18T21:52:00.867Z,22.18
2018-09-18T21:55:25.281Z,22.13
2018-09-18T21:58:49.732Z,21.99
2018-09-18T22:02:14.186Z,22.02
2018-09-18T22:05:38.782Z,22.01
2018-09-18T22:09:03.360Z,22.25
2018-09-18T22:12:27.862Z,22.28
2018-09-18T22:15:52.292Z,22.33
2018-09-18T22:19:16.663Z,22.05
2018-09-18T22:22:41.113Z,22.12
2018-09-18T22:26:05.579Z,22.03
2018-09-18T22:29:30.115Z,21.94
2018-09-18T22:32:54.576Z,22.02
2018-09-18T22:36:19.021Z,21.88
2018-09-18T22:39:43.541Z,21.93
2018-09-18T22:43:08.011Z,21.85
2018-09-18T22:46:32.485Z,21.71
2018-09-18T22:49:56.984Z,21.61
2018-09-18T22:53:21.549Z,21.60
2018-09-18T22:56:45.969Z,21.38
2018-09-18T23:00:10.695Z,21.42
2018-09-18T23:03:35.138Z,21.31
2018-09-18T23:06:59.615Z,21.40
2018-09-18T23:10:24.058Z,21.29
2018-09-18T23:13:48.550Z,21.12
2018-09-18T23:17:13.005Z,21.00
2018-09-18T23:20:37.417Z,21.02
2018-09-18T23:24:01.946Z,21.00
2018-09-18T23:27:26.322Z,20.95
2018-09-18T23:30:50.834Z,20.71
2018-09-18T23:34:15.331Z,20.90
2018-09-18T23:37:39.858Z,20.71
2018-09-18T23:41:04.284Z,20.59
2018-09-18T23:44:29.009Z,20.53
2018-09-18T23:47:53.542Z,20.46
2018-09-18T23:51:18.003Z,20.51
2018-09-18T23:54:42.460Z,20.41
2018-09-18T23:58:06.895Z,20.37
